sensor_id;sensor_type;location;lat;lon;timestamp;P1;durP1;ratioP1;P2;durP2;ratioP2
63316;SDS011;49822;41.468;13.560;2023-12-04T00:02:23;23.67;;;12.25;;
63316;SDS011;49822;41.468;13.560;2023-12-04T00:04:50;25.80;;;13.27;;
63316;SDS011;49822;41.468;13.560;2023-12-04T00:07:16;18.30;;;8.48;;
63316;SDS011;49822;41.468;13.560;2023-12-04T00:09:43;13.90;;;4.90;;
63316;SDS011;49822;41.468;13.560;2023-12-04T00:12:09;9.10;;;3.10;;
63316;SDS011;49822;41.468;13.560;2023-12-04T00:14:35;8.57;;;2.33;;
63316;SDS011;49822;41.468;13.560;2023-12-04T00:17:01;13.13;;;2.75;;
63316;SDS011;49822;41.468;13.560;2023-12-04T00:19:27;10.00;;;2.95;;
63316;SDS011;49822;41.468;13.560;2023-12-04T00:21:53;6.63;;;3.10;;
63316;SDS011;49822;41.468;13.560;2023-12-04T00:24:28;6.70;;;3.28;;
63316;SDS011;49822;41.468;13.560;2023-12-04T00:26:57;9.48;;;3.40;;
63316;SDS011;49822;41.468;13.560;2023-12-04T00:29:23;20.40;;;7.00;;
63316;SDS011;49822;41.468;13.560;2023-12-04T00:31:49;10.40;;;2.90;;
63316;SDS011;49822;41.468;13.560;2023-12-04T00:34:15;10.60;;;3.33;;
63316;SDS011;49822;41.468;13.560;2023-12-04T00:36:41;10.75;;;3.65;;
63316;SDS011;49822;41.468;13.560;2023-12-04T00:39:07;4.90;;;2.10;;
63316;SDS011;49822;41.468;13.560;2023-12-04T00:41:33;8.35;;;3.13;;
63316;SDS011;49822;41.468;13.560;2023-12-04T00:43:59;9.43;;;2.40;;
63316;SDS011;49822;41.468;13.560;2023-12-04T00:46:26;6.18;;;1.48;;
63316;SDS011;49822;41.468;13.560;2023-12-04T00:48:52;5.25;;;2.10;;
63316;SDS011;49822;41.468;13.560;2023-12-04T00:51:28;3.40;;;2.00;;
63316;SDS011;49822;41.468;13.560;2023-12-04T00:54:12;4.40;;;2.10;;
63316;SDS011;49822;41.468;13.560;2023-12-04T00:56:59;10.32;;;3.13;;
63316;SDS011;49822;41.468;13.560;2023-12-04T00:59:25;10.43;;;3.90;;
63316;SDS011;49822;41.468;13.560;2023-12-04T01:01:52;10.55;;;3.72;;
63316;SDS011;49822;41.468;13.560;2023-12-04T01:04:18;13.43;;;4.18;;
63316;SDS011;49822;41.468;13.560;2023-12-04T01:06:44;9.13;;;3.22;;
63316;SDS011;49822;41.468;13.560;2023-12-04T01:09:12;13.90;;;3.78;;
63316;SDS011;49822;41.468;13.560;2023-12-04T01:11:38;8.82;;;3.28;;
63316;SDS011;49822;41.468;13.560;2023-12-04T01:14:05;12.10;;;4.15;;
63316;SDS011;49822;41.468;13.560;2023-12-04T01:16:31;7.95;;;3.38;;
63316;SDS011;49822;41.468;13.560;2023-12-04T01:18:57;13.40;;;2.90;;
63316;SDS011;49822;41.468;13.560;2023-12-04T01:21:32;9.73;;;3.00;;
63316;SDS011;49822;41.468;13.560;2023-12-04T01:24:24;8.55;;;3.58;;
63316;SDS011;49822;41.468;13.560;2023-12-04T01:27:05;12.50;;;2.95;;
63316;SDS011;49822;41.468;13.560;2023-12-04T01:29:32;9.05;;;3.17;;
63316;SDS011;49822;41.468;13.560;2023-12-04T01:31:59;5.07;;;3.08;;
63316;SDS011;49822;41.468;13.560;2023-12-04T01:34:25;8.48;;;3.30;;
63316;SDS011;49822;41.468;13.560;2023-12-04T01:36:51;12.70;;;3.08;;
63316;SDS011;49822;41.468;13.560;2023-12-04T01:39:17;8.48;;;3.15;;
63316;SDS011;49822;41.468;13.560;2023-12-04T01:41:43;12.68;;;3.20;;
63316;SDS011;49822;41.468;13.560;2023-12-04T01:44:09;8.25;;;3.03;;
63316;SDS011;49822;41.468;13.560;2023-12-04T01:46:36;5.53;;;2.78;;
63316;SDS011;49822;41.468;13.560;2023-12-04T01:49:02;6.95;;;2.22;;
63316;SDS011;49822;41.468;13.560;2023-12-04T01:51:35;6.70;;;2.95;;
63316;SDS011;49822;41.468;13.560;2023-12-04T01:54:29;8.48;;;3.38;;
63316;SDS011;49822;41.468;13.560;2023-12-04T01:57:02;7.43;;;3.22;;
63316;SDS011;49822;41.468;13.560;2023-12-04T01:59:29;7.07;;;2.60;;
63316;SDS011;49822;41.468;13.560;2023-12-04T02:01:55;9.93;;;3.60;;
63316;SDS011;49822;41.468;13.560;2023-12-04T02:04:22;13.73;;;5.30;;
63316;SDS011;49822;41.468;13.560;2023-12-04T02:06:48;12.07;;;4.97;;
63316;SDS011;49822;41.468;13.560;2023-12-04T02:09:14;13.98;;;5.13;;
63316;SDS011;49822;41.468;13.560;2023-12-04T02:11:41;12.18;;;5.18;;
63316;SDS011;49822;41.468;13.560;2023-12-04T02:14:08;18.15;;;6.95;;
63316;SDS011;49822;41.468;13.560;2023-12-04T02:16:37;11.55;;;4.35;;
63316;SDS011;49822;41.468;13.560;2023-12-04T02:19:11;9.02;;;3.50;;
63316;SDS011;49822;41.468;13.560;2023-12-04T02:21:37;10.88;;;4.43;;
63316;SDS011;49822;41.468;13.560;2023-12-04T02:24:04;10.75;;;3.42;;
63316;SDS011;49822;41.468;13.560;2023-12-04T02:26:31;6.97;;;3.20;;
63316;SDS011;49822;41.468;13.560;2023-12-04T02:29:04;6.85;;;2.58;;
63316;SDS011;49822;41.468;13.560;2023-12-04T02:31:33;4.70;;;3.03;;
63316;SDS011;49822;41.468;13.560;2023-12-04T02:34:00;17.60;;;11.95;;
63316;SDS011;49822;41.468;13.560;2023-12-04T02:36:30;7.65;;;4.07;;
63316;SDS011;49822;41.468;13.560;2023-12-04T02:38:57;14.98;;;4.80;;
63316;SDS011;49822;41.468;13.560;2023-12-04T02:41:24;14.82;;;4.55;;
63316;SDS011;49822;41.468;13.560;2023-12-04T02:43:50;75.13;;;28.17;;
63316;SDS011;49822;41.468;13.560;2023-12-04T02:46:16;112.75;;;45.58;;
63316;SDS011;49822;41.468;13.560;2023-12-04T02:48:43;28.20;;;10.48;;
63316;SDS011;49822;41.468;13.560;2023-12-04T02:51:09;31.55;;;12.95;;
63316;SDS011;49822;41.468;13.560;2023-12-04T02:53:35;23.08;;;5.82;;
63316;SDS011;49822;41.468;13.560;2023-12-04T02:56:01;18.02;;;6.30;;
63316;SDS011;49822;41.468;13.560;2023-12-04T02:58:28;38.90;;;17.00;;
63316;SDS011;49822;41.468;13.560;2023-12-04T03:00:54;44.45;;;16.30;;
63316;SDS011;49822;41.468;13.560;2023-12-04T03:03:20;17.23;;;7.10;;
63316;SDS011;49822;41.468;13.560;2023-12-04T03:05:48;17.20;;;4.30;;
63316;SDS011;49822;41.468;13.560;2023-12-04T03:08:14;9.70;;;4.10;;
63316;SDS011;49822;41.468;13.560;2023-12-04T03:10:41;11.50;;;3.83;;
63316;SDS011;49822;41.468;13.560;2023-12-04T03:13:07;47.20;;;20.55;;
63316;SDS011;49822;41.468;13.560;2023-12-04T03:15:39;68.97;;;25.17;;
63316;SDS011;49822;41.468;13.560;2023-12-04T03:18:19;17.25;;;7.25;;
63316;SDS011;49822;41.468;13.560;2023-12-04T03:21:11;14.48;;;5.13;;
63316;SDS011;49822;41.468;13.560;2023-12-04T03:23:37;44.97;;;17.00;;
63316;SDS011;49822;41.468;13.560;2023-12-04T03:26:04;25.00;;;9.40;;
63316;SDS011;49822;41.468;13.560;2023-12-04T03:28:30;71.20;;;24.23;;
63316;SDS011;49822;41.468;13.560;2023-12-04T03:30:56;23.15;;;7.82;;
63316;SDS011;49822;41.468;13.560;2023-12-04T03:33:23;21.55;;;14.77;;
63316;SDS011;49822;41.468;13.560;2023-12-04T03:35:49;28.98;;;11.57;;
63316;SDS011;49822;41.468;13.560;2023-12-04T03:38:15;8.35;;;3.50;;
63316;SDS011;49822;41.468;13.560;2023-12-04T03:40:41;11.95;;;3.90;;
63316;SDS011;49822;41.468;13.560;2023-12-04T03:43:08;15.98;;;4.90;;
63316;SDS011;49822;41.468;13.560;2023-12-04T03:45:35;12.90;;;4.45;;
63316;SDS011;49822;41.468;13.560;2023-12-04T03:48:12;13.85;;;4.93;;
63316;SDS011;49822;41.468;13.560;2023-12-04T03:51:10;6.28;;;2.83;;
63316;SDS011;49822;41.468;13.560;2023-12-04T03:53:54;6.50;;;2.72;;
63316;SDS011;49822;41.468;13.560;2023-12-04T03:56:20;10.82;;;3.45;;
63316;SDS011;49822;41.468;13.560;2023-12-04T03:58:46;9.57;;;2.92;;
63316;SDS011;49822;41.468;13.560;2023-12-04T04:01:12;7.55;;;2.60;;
63316;SDS011;49822;41.468;13.560;2023-12-04T04:03:39;9.55;;;3.42;;
63316;SDS011;49822;41.468;13.560;2023-12-04T04:06:05;10.00;;;3.08;;
63316;SDS011;49822;41.468;13.560;2023-12-04T04:08:32;7.00;;;3.22;;
63316;SDS011;49822;41.468;13.560;2023-12-04T04:10:58;6.35;;;2.88;;
63316;SDS011;49822;41.468;13.560;2023-12-04T04:13:24;5.85;;;2.35;;
63316;SDS011;49822;41.468;13.560;2023-12-04T04:15:51;6.13;;;2.25;;
63316;SDS011;49822;41.468;13.560;2023-12-04T04:18:25;7.28;;;2.33;;
63316;SDS011;49822;41.468;13.560;2023-12-04T04:21:39;7.15;;;2.50;;
63316;SDS011;49822;41.468;13.560;2023-12-04T04:24:19;7.72;;;3.00;;
63316;SDS011;49822;41.468;13.560;2023-12-04T04:26:45;9.50;;;3.15;;
63316;SDS011;49822;41.468;13.560;2023-12-04T04:29:12;4.45;;;2.00;;
63316;SDS011;49822;41.468;13.560;2023-12-04T04:31:38;7.05;;;2.50;;
63316;SDS011;49822;41.468;13.560;2023-12-04T04:34:04;6.43;;;2.47;;
63316;SDS011;49822;41.468;13.560;2023-12-04T04:36:30;5.88;;;2.50;;
63316;SDS011;49822;41.468;13.560;2023-12-04T04:38:56;8.07;;;2.58;;
63316;SDS011;49822;41.468;13.560;2023-12-04T04:41:23;4.03;;;1.90;;
63316;SDS011;49822;41.468;13.560;2023-12-04T04:43:50;8.00;;;2.50;;
63316;SDS011;49822;41.468;13.560;2023-12-04T04:46:16;4.00;;;1.80;;
63316;SDS011;49822;41.468;13.560;2023-12-04T04:49:03;10.25;;;3.40;;
63316;SDS011;49822;41.468;13.560;2023-12-04T04:51:38;7.47;;;2.47;;
63316;SDS011;49822;41.468;13.560;2023-12-04T04:54:09;9.93;;;2.08;;
63316;SDS011;49822;41.468;13.560;2023-12-04T04:56:35;4.22;;;2.22;;
63316;SDS011;49822;41.468;13.560;2023-12-04T04:59:02;54.08;;;19.92;;
63316;SDS011;49822;41.468;13.560;2023-12-04T05:01:28;37.28;;;13.80;;
63316;SDS011;49822;41.468;13.560;2023-12-04T05:03:54;7.90;;;3.20;;
63316;SDS011;49822;41.468;13.560;2023-12-04T05:06:20;7.45;;;2.35;;
63316;SDS011;49822;41.468;13.560;2023-12-04T05:08:48;7.95;;;2.40;;
63316;SDS011;49822;41.468;13.560;2023-12-04T05:11:17;7.28;;;2.40;;
63316;SDS011;49822;41.468;13.560;2023-12-04T05:13:50;37.38;;;13.55;;
63316;SDS011;49822;41.468;13.560;2023-12-04T05:16:16;9.70;;;4.10;;
63316;SDS011;49822;41.468;13.560;2023-12-04T05:18:42;6.47;;;2.80;;
63316;SDS011;49822;41.468;13.560;2023-12-04T05:21:08;11.65;;;3.63;;
63316;SDS011;49822;41.468;13.560;2023-12-04T05:23:36;13.27;;;4.15;;
63316;SDS011;49822;41.468;13.560;2023-12-04T05:26:03;5.95;;;2.33;;
63316;SDS011;49822;41.468;13.560;2023-12-04T05:28:30;11.48;;;3.40;;
63316;SDS011;49822;41.468;13.560;2023-12-04T05:30:57;10.05;;;4.28;;
63316;SDS011;49822;41.468;13.560;2023-12-04T05:33:23;4.85;;;2.17;;
63316;SDS011;49822;41.468;13.560;2023-12-04T05:35:50;4.93;;;2.05;;
63316;SDS011;49822;41.468;13.560;2023-12-04T05:38:17;5.90;;;1.92;;
63316;SDS011;49822;41.468;13.560;2023-12-04T05:40:43;6.03;;;2.40;;
63316;SDS011;49822;41.468;13.560;2023-12-04T05:43:09;10.48;;;3.60;;
63316;SDS011;49822;41.468;13.560;2023-12-04T05:45:36;8.15;;;2.53;;
63316;SDS011;49822;41.468;13.560;2023-12-04T05:48:06;9.55;;;3.38;;
63316;SDS011;49822;41.468;13.560;2023-12-04T05:50:32;6.00;;;2.67;;
63316;SDS011;49822;41.468;13.560;2023-12-04T05:52:58;3.42;;;1.52;;
63316;SDS011;49822;41.468;13.560;2023-12-04T05:55:24;3.63;;;1.63;;
63316;SDS011;49822;41.468;13.560;2023-12-04T05:57:50;8.60;;;2.95;;
63316;SDS011;49822;41.468;13.560;2023-12-04T06:00:18;3.97;;;1.90;;
63316;SDS011;49822;41.468;13.560;2023-12-04T06:02:45;7.25;;;2.72;;
63316;SDS011;49822;41.468;13.560;2023-12-04T06:05:11;7.32;;;2.60;;
63316;SDS011;49822;41.468;13.560;2023-12-04T06:07:37;9.77;;;3.50;;
63316;SDS011;49822;41.468;13.560;2023-12-04T06:10:04;8.50;;;3.20;;
63316;SDS011;49822;41.468;13.560;2023-12-04T06:12:33;9.20;;;2.92;;
63316;SDS011;49822;41.468;13.560;2023-12-04T06:14:59;11.60;;;4.38;;
63316;SDS011;49822;41.468;13.560;2023-12-04T06:17:26;8.50;;;3.20;;
63316;SDS011;49822;41.468;13.560;2023-12-04T06:19:52;10.50;;;3.75;;
63316;SDS011;49822;41.468;13.560;2023-12-04T06:22:20;13.25;;;3.92;;
63316;SDS011;49822;41.468;13.560;2023-12-04T06:24:47;16.65;;;5.75;;
63316;SDS011;49822;41.468;13.560;2023-12-04T06:27:17;13.30;;;5.78;;
63316;SDS011;49822;41.468;13.560;2023-12-04T06:29:45;14.48;;;5.35;;
63316;SDS011;49822;41.468;13.560;2023-12-04T06:32:13;10.20;;;4.05;;
63316;SDS011;49822;41.468;13.560;2023-12-04T06:34:39;13.65;;;4.20;;
63316;SDS011;49822;41.468;13.560;2023-12-04T06:37:10;15.88;;;5.32;;
63316;SDS011;49822;41.468;13.560;2023-12-04T06:39:37;14.30;;;7.05;;
63316;SDS011;49822;41.468;13.560;2023-12-04T06:42:05;8.93;;;4.40;;
63316;SDS011;49822;41.468;13.560;2023-12-04T06:44:35;12.13;;;3.97;;
63316;SDS011;49822;41.468;13.560;2023-12-04T06:47:02;5.43;;;2.40;;
63316;SDS011;49822;41.468;13.560;2023-12-04T06:49:30;6.10;;;2.45;;
63316;SDS011;49822;41.468;13.560;2023-12-04T06:51:58;5.05;;;2.45;;
63316;SDS011;49822;41.468;13.560;2023-12-04T06:54:25;4.82;;;2.53;;
63316;SDS011;49822;41.468;13.560;2023-12-04T06:56:51;5.70;;;2.15;;
63316;SDS011;49822;41.468;13.560;2023-12-04T06:59:18;9.15;;;2.72;;
63316;SDS011;49822;41.468;13.560;2023-12-04T07:01:45;9.27;;;2.90;;
63316;SDS011;49822;41.468;13.560;2023-12-04T07:04:11;6.97;;;2.75;;
63316;SDS011;49822;41.468;13.560;2023-12-04T07:06:39;14.05;;;5.18;;
63316;SDS011;49822;41.468;13.560;2023-12-04T07:09:05;9.70;;;4.88;;
63316;SDS011;49822;41.468;13.560;2023-12-04T07:11:35;16.00;;;7.05;;
63316;SDS011;49822;41.468;13.560;2023-12-04T07:14:01;18.95;;;8.30;;
63316;SDS011;49822;41.468;13.560;2023-12-04T07:16:27;25.77;;;11.35;;
63316;SDS011;49822;41.468;13.560;2023-12-04T07:18:53;28.98;;;13.60;;
63316;SDS011;49822;41.468;13.560;2023-12-04T07:21:19;39.05;;;19.35;;
63316;SDS011;49822;41.468;13.560;2023-12-04T07:23:45;55.13;;;28.35;;
63316;SDS011;49822;41.468;13.560;2023-12-04T07:26:12;119.75;;;54.85;;
63316;SDS011;49822;41.468;13.560;2023-12-04T07:28:38;121.72;;;52.65;;
63316;SDS011;49822;41.468;13.560;2023-12-04T07:31:04;206.32;;;85.22;;
63316;SDS011;49822;41.468;13.560;2023-12-04T07:33:31;113.43;;;49.00;;
63316;SDS011;49822;41.468;13.560;2023-12-04T07:35:58;117.43;;;45.08;;
63316;SDS011;49822;41.468;13.560;2023-12-04T07:38:24;85.70;;;35.95;;
63316;SDS011;49822;41.468;13.560;2023-12-04T07:40:50;65.80;;;28.65;;
63316;SDS011;49822;41.468;13.560;2023-12-04T07:43:17;63.65;;;27.70;;
63316;SDS011;49822;41.468;13.560;2023-12-04T07:45:44;58.92;;;24.33;;
63316;SDS011;49822;41.468;13.560;2023-12-04T07:48:11;46.85;;;20.98;;
63316;SDS011;49822;41.468;13.560;2023-12-04T07:50:38;41.17;;;18.17;;
63316;SDS011;49822;41.468;13.560;2023-12-04T07:53:05;61.47;;;25.40;;
63316;SDS011;49822;41.468;13.560;2023-12-04T07:55:33;89.50;;;31.83;;
63316;SDS011;49822;41.468;13.560;2023-12-04T07:57:59;51.15;;;22.27;;
63316;SDS011;49822;41.468;13.560;2023-12-04T08:00:25;46.88;;;20.35;;
63316;SDS011;49822;41.468;13.560;2023-12-04T08:02:52;47.55;;;19.10;;
63316;SDS011;49822;41.468;13.560;2023-12-04T08:05:18;60.83;;;26.52;;
63316;SDS011;49822;41.468;13.560;2023-12-04T08:07:44;54.08;;;22.85;;
63316;SDS011;49822;41.468;13.560;2023-12-04T08:10:10;53.78;;;21.70;;
63316;SDS011;49822;41.468;13.560;2023-12-04T08:12:37;41.03;;;17.35;;
63316;SDS011;49822;41.468;13.560;2023-12-04T08:15:04;35.22;;;15.30;;
63316;SDS011;49822;41.468;13.560;2023-12-04T08:17:32;32.60;;;13.13;;
63316;SDS011;49822;41.468;13.560;2023-12-04T08:19:59;36.63;;;15.43;;
63316;SDS011;49822;41.468;13.560;2023-12-04T08:22:25;35.65;;;15.60;;
63316;SDS011;49822;41.468;13.560;2023-12-04T08:24:51;33.83;;;14.65;;
63316;SDS011;49822;41.468;13.560;2023-12-04T08:27:18;35.75;;;15.02;;
63316;SDS011;49822;41.468;13.560;2023-12-04T08:29:44;31.00;;;13.98;;
63316;SDS011;49822;41.468;13.560;2023-12-04T08:32:11;29.70;;;13.60;;
63316;SDS011;49822;41.468;13.560;2023-12-04T08:34:37;27.60;;;12.88;;
63316;SDS011;49822;41.468;13.560;2023-12-04T08:37:03;28.13;;;12.80;;
63316;SDS011;49822;41.468;13.560;2023-12-04T08:39:31;25.48;;;11.38;;
63316;SDS011;49822;41.468;13.560;2023-12-04T08:41:57;22.85;;;11.35;;
63316;SDS011;49822;41.468;13.560;2023-12-04T08:44:25;24.27;;;10.52;;
63316;SDS011;49822;41.468;13.560;2023-12-04T08:46:51;19.73;;;8.15;;
63316;SDS011;49822;41.468;13.560;2023-12-04T08:49:17;21.40;;;11.88;;
63316;SDS011;49822;41.468;13.560;2023-12-04T08:51:43;19.33;;;9.52;;
63316;SDS011;49822;41.468;13.560;2023-12-04T08:54:10;33.10;;;14.52;;
63316;SDS011;49822;41.468;13.560;2023-12-04T08:56:36;18.02;;;8.02;;
63316;SDS011;49822;41.468;13.560;2023-12-04T08:59:02;23.98;;;9.85;;
63316;SDS011;49822;41.468;13.560;2023-12-04T09:01:28;15.90;;;7.82;;
63316;SDS011;49822;41.468;13.560;2023-12-04T09:03:54;10.95;;;4.03;;
63316;SDS011;49822;41.468;13.560;2023-12-04T09:06:22;12.48;;;5.22;;
63316;SDS011;49822;41.468;13.560;2023-12-04T09:08:48;28.02;;;11.75;;
63316;SDS011;49822;41.468;13.560;2023-12-04T09:11:14;18.20;;;7.65;;
63316;SDS011;49822;41.468;13.560;2023-12-04T09:13:40;11.00;;;4.90;;
63316;SDS011;49822;41.468;13.560;2023-12-04T09:16:06;11.70;;;5.43;;
63316;SDS011;49822;41.468;13.560;2023-12-04T09:18:33;55.15;;;22.88;;
63316;SDS011;49822;41.468;13.560;2023-12-04T09:20:59;59.03;;;24.90;;
63316;SDS011;49822;41.468;13.560;2023-12-04T09:23:26;14.13;;;6.28;;
63316;SDS011;49822;41.468;13.560;2023-12-04T09:25:52;12.45;;;5.63;;
63316;SDS011;49822;41.468;13.560;2023-12-04T09:28:18;25.88;;;10.95;;
63316;SDS011;49822;41.468;13.560;2023-12-04T09:30:44;13.63;;;5.63;;
63316;SDS011;49822;41.468;13.560;2023-12-04T09:33:12;10.50;;;4.68;;
63316;SDS011;49822;41.468;13.560;2023-12-04T09:35:39;31.63;;;10.23;;
63316;SDS011;49822;41.468;13.560;2023-12-04T09:38:05;13.20;;;5.65;;
63316;SDS011;49822;41.468;13.560;2023-12-04T09:40:32;33.10;;;13.80;;
63316;SDS011;49822;41.468;13.560;2023-12-04T09:42:58;11.77;;;4.65;;
63316;SDS011;49822;41.468;13.560;2023-12-04T09:45:24;10.68;;;4.32;;
63316;SDS011;49822;41.468;13.560;2023-12-04T09:47:51;9.88;;;4.35;;
63316;SDS011;49822;41.468;13.560;2023-12-04T09:50:19;8.70;;;4.13;;
63316;SDS011;49822;41.468;13.560;2023-12-04T09:52:48;10.27;;;3.65;;
63316;SDS011;49822;41.468;13.560;2023-12-04T09:55:18;9.32;;;3.45;;
63316;SDS011;49822;41.468;13.560;2023-12-04T09:57:45;10.32;;;3.80;;
63316;SDS011;49822;41.468;13.560;2023-12-04T10:00:12;13.40;;;3.92;;
63316;SDS011;49822;41.468;13.560;2023-12-04T10:02:40;7.97;;;3.65;;
63316;SDS011;49822;41.468;13.560;2023-12-04T10:05:07;5.22;;;3.00;;
63316;SDS011;49822;41.468;13.560;2023-12-04T10:07:34;11.00;;;3.35;;
63316;SDS011;49822;41.468;13.560;2023-12-04T10:10:02;13.43;;;5.88;;
63316;SDS011;49822;41.468;13.560;2023-12-04T10:12:33;9.80;;;3.50;;
63316;SDS011;49822;41.468;13.560;2023-12-04T10:15:06;9.88;;;3.80;;
63316;SDS011;49822;41.468;13.560;2023-12-04T10:17:37;8.68;;;4.20;;
63316;SDS011;49822;41.468;13.560;2023-12-04T10:20:14;8.85;;;3.97;;
63316;SDS011;49822;41.468;13.560;2023-12-04T10:22:54;11.15;;;4.00;;
63316;SDS011;49822;41.468;13.560;2023-12-04T10:25:29;8.10;;;3.85;;
63316;SDS011;49822;41.468;13.560;2023-12-04T10:28:12;9.35;;;4.22;;
63316;SDS011;49822;41.468;13.560;2023-12-04T10:30:42;9.13;;;3.97;;
63316;SDS011;49822;41.468;13.560;2023-12-04T10:33:12;7.53;;;4.20;;
63316;SDS011;49822;41.468;13.560;2023-12-04T10:35:39;9.25;;;4.00;;
63316;SDS011;49822;41.468;13.560;2023-12-04T10:38:06;9.30;;;3.70;;
63316;SDS011;49822;41.468;13.560;2023-12-04T10:40:35;10.68;;;4.20;;
63316;SDS011;49822;41.468;13.560;2023-12-04T10:43:14;8.35;;;3.75;;
63316;SDS011;49822;41.468;13.560;2023-12-04T10:45:42;6.50;;;3.40;;
63316;SDS011;49822;41.468;13.560;2023-12-04T10:48:12;11.48;;;3.95;;
63316;SDS011;49822;41.468;13.560;2023-12-04T10:50:39;9.57;;;3.58;;
63316;SDS011;49822;41.468;13.560;2023-12-04T10:53:08;7.00;;;3.80;;
63316;SDS011;49822;41.468;13.560;2023-12-04T10:58:06;7.45;;;3.70;;
63316;SDS011;49822;41.468;13.560;2023-12-04T11:00:40;10.05;;;3.92;;
63316;SDS011;49822;41.468;13.560;2023-12-04T11:03:36;10.50;;;3.90;;
63316;SDS011;49822;41.468;13.560;2023-12-04T11:06:02;13.95;;;4.90;;
63316;SDS011;49822;41.468;13.560;2023-12-04T11:08:35;11.75;;;4.68;;
63316;SDS011;49822;41.468;13.560;2023-12-04T11:11:03;12.52;;;4.65;;
63316;SDS011;49822;41.468;13.560;2023-12-04T11:13:42;10.23;;;4.15;;
63316;SDS011;49822;41.468;13.560;2023-12-04T11:18:55;10.05;;;4.57;;
63316;SDS011;49822;41.468;13.560;2023-12-04T11:21:27;12.20;;;5.07;;
63316;SDS011;49822;41.468;13.560;2023-12-04T11:23:54;11.63;;;5.05;;
63316;SDS011;49822;41.468;13.560;2023-12-04T11:26:23;11.68;;;4.60;;
63316;SDS011;49822;41.468;13.560;2023-12-04T11:28:51;10.75;;;4.20;;
63316;SDS011;49822;41.468;13.560;2023-12-04T11:31:18;12.65;;;4.00;;
63316;SDS011;49822;41.468;13.560;2023-12-04T11:33:45;9.23;;;4.38;;
63316;SDS011;49822;41.468;13.560;2023-12-04T11:36:12;10.43;;;4.45;;
63316;SDS011;49822;41.468;13.560;2023-12-04T11:38:49;12.35;;;4.32;;
63316;SDS011;49822;41.468;13.560;2023-12-04T11:43:46;14.13;;;4.90;;
63316;SDS011;49822;41.468;13.560;2023-12-04T11:46:25;10.43;;;4.05;;
63316;SDS011;49822;41.468;13.560;2023-12-04T11:48:56;11.15;;;4.45;;
63316;SDS011;49822;41.468;13.560;2023-12-04T11:54:10;10.35;;;4.43;;
63316;SDS011;49822;41.468;13.560;2023-12-04T11:56:39;10.00;;;5.15;;
63316;SDS011;49822;41.468;13.560;2023-12-04T11:59:05;9.95;;;4.88;;
63316;SDS011;49822;41.468;13.560;2023-12-04T12:01:36;11.48;;;5.32;;
63316;SDS011;49822;41.468;13.560;2023-12-04T12:04:06;8.55;;;4.28;;
63316;SDS011;49822;41.468;13.560;2023-12-04T12:06:32;8.55;;;3.67;;
63316;SDS011;49822;41.468;13.560;2023-12-04T12:08:59;7.80;;;4.18;;
63316;SDS011;49822;41.468;13.560;2023-12-04T12:11:25;7.78;;;3.67;;
63316;SDS011;49822;41.468;13.560;2023-12-04T12:13:55;9.70;;;3.72;;
63316;SDS011;49822;41.468;13.560;2023-12-04T12:16:21;7.55;;;3.60;;
63316;SDS011;49822;41.468;13.560;2023-12-04T12:18:47;12.90;;;4.70;;
63316;SDS011;49822;41.468;13.560;2023-12-04T12:21:14;11.50;;;4.18;;
63316;SDS011;49822;41.468;13.560;2023-12-04T12:23:40;20.23;;;7.40;;
63316;SDS011;49822;41.468;13.560;2023-12-04T12:26:07;16.52;;;6.85;;
63316;SDS011;49822;41.468;13.560;2023-12-04T12:28:37;10.13;;;4.38;;
63316;SDS011;49822;41.468;13.560;2023-12-04T12:31:03;9.52;;;3.55;;
63316;SDS011;49822;41.468;13.560;2023-12-04T12:33:30;11.05;;;3.28;;
63316;SDS011;49822;41.468;13.560;2023-12-04T12:35:56;7.47;;;3.20;;
63316;SDS011;49822;41.468;13.560;2023-12-04T12:38:24;7.00;;;3.45;;
63316;SDS011;49822;41.468;13.560;2023-12-04T12:40:50;9.43;;;3.55;;
63316;SDS011;49822;41.468;13.560;2023-12-04T12:43:19;12.68;;;4.90;;
63316;SDS011;49822;41.468;13.560;2023-12-04T12:48:17;11.20;;;3.63;;
63316;SDS011;49822;41.468;13.560;2023-12-04T12:50:44;8.52;;;3.65;;
63316;SDS011;49822;41.468;13.560;2023-12-04T12:53:13;10.52;;;2.90;;
63316;SDS011;49822;41.468;13.560;2023-12-04T12:55:42;10.40;;;3.20;;
63316;SDS011;49822;41.468;13.560;2023-12-04T12:58:10;6.70;;;3.42;;
63316;SDS011;49822;41.468;13.560;2023-12-04T13:00:39;6.50;;;3.10;;
63316;SDS011;49822;41.468;13.560;2023-12-04T13:03:16;13.00;;;3.83;;
63316;SDS011;49822;41.468;13.560;2023-12-04T13:05:43;93.05;;;29.67;;
63316;SDS011;49822;41.468;13.560;2023-12-04T13:08:10;11.57;;;4.15;;
63316;SDS011;49822;41.468;13.560;2023-12-04T13:10:40;68.10;;;22.85;;
63316;SDS011;49822;41.468;13.560;2023-12-04T13:13:13;17.55;;;6.63;;
63316;SDS011;49822;41.468;13.560;2023-12-04T13:15:41;14.05;;;4.70;;
63316;SDS011;49822;41.468;13.560;2023-12-04T13:18:09;11.10;;;3.83;;
63316;SDS011;49822;41.468;13.560;2023-12-04T13:20:35;8.38;;;3.92;;
63316;SDS011;49822;41.468;13.560;2023-12-04T13:23:02;10.10;;;4.15;;
63316;SDS011;49822;41.468;13.560;2023-12-04T13:25:28;14.82;;;5.03;;
63316;SDS011;49822;41.468;13.560;2023-12-04T13:27:54;10.95;;;4.70;;
63316;SDS011;49822;41.468;13.560;2023-12-04T13:30:20;14.98;;;4.90;;
63316;SDS011;49822;41.468;13.560;2023-12-04T13:32:47;12.90;;;6.75;;
63316;SDS011;49822;41.468;13.560;2023-12-04T13:35:15;10.27;;;4.28;;
63316;SDS011;49822;41.468;13.560;2023-12-04T13:37:41;11.15;;;4.55;;
63316;SDS011;49822;41.468;13.560;2023-12-04T13:40:08;9.80;;;4.43;;
63316;SDS011;49822;41.468;13.560;2023-12-04T13:42:38;13.85;;;4.22;;
63316;SDS011;49822;41.468;13.560;2023-12-04T13:45:22;13.75;;;4.65;;
63316;SDS011;49822;41.468;13.560;2023-12-04T13:47:49;23.35;;;5.82;;
63316;SDS011;49822;41.468;13.560;2023-12-04T13:50:16;26.60;;;10.13;;
63316;SDS011;49822;41.468;13.560;2023-12-04T13:52:42;28.83;;;8.55;;
63316;SDS011;49822;41.468;13.560;2023-12-04T13:55:09;26.85;;;9.07;;
63316;SDS011;49822;41.468;13.560;2023-12-04T13:58:00;19.17;;;6.35;;
63316;SDS011;49822;41.468;13.560;2023-12-04T14:00:30;15.95;;;6.43;;
63316;SDS011;49822;41.468;13.560;2023-12-04T14:02:56;17.10;;;4.97;;
63316;SDS011;49822;41.468;13.560;2023-12-04T14:05:32;17.23;;;4.82;;
63316;SDS011;49822;41.468;13.560;2023-12-04T14:07:59;12.30;;;4.05;;
63316;SDS011;49822;41.468;13.560;2023-12-04T14:10:26;9.98;;;3.88;;
63316;SDS011;49822;41.468;13.560;2023-12-04T14:12:53;16.08;;;4.82;;
63316;SDS011;49822;41.468;13.560;2023-12-04T14:15:20;13.32;;;4.95;;
63316;SDS011;49822;41.468;13.560;2023-12-04T14:17:46;13.75;;;4.72;;
63316;SDS011;49822;41.468;13.560;2023-12-04T14:20:13;9.80;;;4.38;;
63316;SDS011;49822;41.468;13.560;2023-12-04T14:22:43;8.63;;;4.03;;
63316;SDS011;49822;41.468;13.560;2023-12-04T14:25:10;11.38;;;3.97;;
63316;SDS011;49822;41.468;13.560;2023-12-04T14:27:36;11.18;;;3.70;;
63316;SDS011;49822;41.468;13.560;2023-12-04T14:30:09;10.00;;;3.67;;
63316;SDS011;49822;41.468;13.560;2023-12-04T14:32:36;12.17;;;3.90;;
63316;SDS011;49822;41.468;13.560;2023-12-04T14:35:03;11.43;;;4.38;;
63316;SDS011;49822;41.468;13.560;2023-12-04T14:37:32;11.60;;;4.95;;
63316;SDS011;49822;41.468;13.560;2023-12-04T14:39:59;9.63;;;4.50;;
63316;SDS011;49822;41.468;13.560;2023-12-04T14:42:25;7.82;;;3.58;;
63316;SDS011;49822;41.468;13.560;2023-12-04T14:44:52;11.93;;;3.78;;